DLH642 EDDM-EDDW
Flight info
| Callsign | DLH642 |
|---|---|
| Flight time | N/A |
| Altitude | 30000 |
| Route | INPUD2N INPUD Y102 ALIBU DCT MASEK/N0471F290 DCT ELNAT/N0468F300 P605 NORTA Z595 NIE Z88 VERED VERED3P |
| Aircraft | A320/M-SDE3FGHIRWY/LB1 |
Departure
| Time | 2026-05-05 09:19 |
|---|---|
| Airport | Munich Airport (EDDM) |
Arrival
| Time | N/A |
|---|---|
| Airport | Bremen Airport (EDDW) |
| Time | Latitude | Longitude | Altitude | Speed | Heading |
|---|---|---|---|---|---|
| 2026-05-05 08:11 | 48.35372 | 11.80375 | 1475 ft | 0 kts | 263° |
| 2026-05-05 09:02 | 48.35374 | 11.80401 | 1485 ft | 2 kts | 263° |
| 2026-05-05 09:03 | 48.35370 | 11.80424 | 1482 ft | 4 kts | 341° |
| 2026-05-05 09:03 | 48.35346 | 11.80431 | 1481 ft | 3 kts | 353° |
| 2026-05-05 09:03 | 48.35341 | 11.80432 | 1485 ft | 0 kts | 353° |
| 2026-05-05 09:07 | 48.35343 | 11.80431 | 1485 ft | 2 kts | 352° |
| 2026-05-05 09:07 | 48.35394 | 11.80420 | 1485 ft | 9 kts | 353° |
| 2026-05-05 09:07 | 48.35413 | 11.80355 | 1485 ft | 7 kts | 270° |
| 2026-05-05 09:07 | 48.35409 | 11.80270 | 1481 ft | 12 kts | 272° |
| 2026-05-05 09:08 | 48.35449 | 11.80164 | 1485 ft | 13 kts | 330° |
| 2026-05-05 09:08 | 48.35541 | 11.80147 | 1485 ft | 14 kts | 354° |
| 2026-05-05 09:08 | 48.35642 | 11.80122 | 1480 ft | 13 kts | 339° |
| 2026-05-05 09:08 | 48.35725 | 11.80072 | 1478 ft | 14 kts | 347° |
| 2026-05-05 09:09 | 48.35814 | 11.80061 | 1485 ft | 11 kts | 345° |
| 2026-05-05 09:09 | 48.35850 | 11.79985 | 1481 ft | 8 kts | 277° |
| 2026-05-05 09:09 | 48.35847 | 11.79903 | 1480 ft | 7 kts | 265° |
| 2026-05-05 09:09 | 48.35840 | 11.79817 | 1477 ft | 12 kts | 262° |
| 2026-05-05 09:10 | 48.35829 | 11.79688 | 1479 ft | 13 kts | 263° |
| 2026-05-05 09:10 | 48.35824 | 11.79544 | 1485 ft | 13 kts | 297° |
| 2026-05-05 09:10 | 48.35883 | 11.79499 | 1482 ft | 7 kts | 320° |
| 2026-05-05 09:10 | 48.35901 | 11.79445 | 1485 ft | 0 kts | 274° |
| 2026-05-05 09:11 | 48.35901 | 11.79441 | 1485 ft | 0 kts | 274° |
| 2026-05-05 09:11 | 48.35902 | 11.79430 | 1485 ft | 3 kts | 274° |
| 2026-05-05 09:11 | 48.35902 | 11.79359 | 1476 ft | 6 kts | 266° |
| 2026-05-05 09:12 | 48.35900 | 11.79325 | 1485 ft | 0 kts | 264° |
| 2026-05-05 09:12 | 48.35900 | 11.79324 | 1485 ft | 0 kts | 264° |
| 2026-05-05 09:12 | 48.35900 | 11.79323 | 1485 ft | 3 kts | 263° |
| 2026-05-05 09:13 | 48.35917 | 11.79265 | 1485 ft | 8 kts | 296° |
| 2026-05-05 09:13 | 48.35940 | 11.79155 | 1485 ft | 4 kts | 321° |
| 2026-05-05 09:13 | 48.35977 | 11.79138 | 1475 ft | 14 kts | 349° |
| 2026-05-05 09:13 | 48.36067 | 11.79161 | 1485 ft | 11 kts | 32° |
| 2026-05-05 09:14 | 48.36091 | 11.79255 | 1474 ft | 9 kts | 85° |
| 2026-05-05 09:14 | 48.36095 | 11.79341 | 1485 ft | 10 kts | 85° |
| 2026-05-05 09:14 | 48.36103 | 11.79458 | 1485 ft | 12 kts | 83° |
| 2026-05-05 09:14 | 48.36116 | 11.79609 | 1480 ft | 20 kts | 85° |
| 2026-05-05 09:15 | 48.36131 | 11.79827 | 1485 ft | 22 kts | 82° |
| 2026-05-05 09:15 | 48.36151 | 11.80056 | 1477 ft | 23 kts | 82° |
| 2026-05-05 09:15 | 48.36168 | 11.80296 | 1485 ft | 24 kts | 85° |
| 2026-05-05 09:15 | 48.36188 | 11.80546 | 1485 ft | 25 kts | 82° |
| 2026-05-05 09:16 | 48.36207 | 11.80805 | 1485 ft | 25 kts | 84° |
| 2026-05-05 09:16 | 48.36228 | 11.81073 | 1485 ft | 26 kts | 83° |
| 2026-05-05 09:16 | 48.36249 | 11.81348 | 1485 ft | 27 kts | 83° |
| 2026-05-05 09:16 | 48.36270 | 11.81630 | 1485 ft | 28 kts | 83° |
| 2026-05-05 09:17 | 48.36291 | 11.81889 | 1480 ft | 20 kts | 71° |
| 2026-05-05 09:17 | 48.36354 | 11.81986 | 1476 ft | 20 kts | 32° |
| 2026-05-05 09:17 | 48.36489 | 11.81996 | 1485 ft | 20 kts | 353° |
| 2026-05-05 09:17 | 48.36624 | 11.81978 | 1485 ft | 14 kts | 359° |
| 2026-05-05 09:18 | 48.36674 | 11.81942 | 1475 ft | 7 kts | 270° |
| 2026-05-05 09:18 | 48.36672 | 11.81905 | 1482 ft | 0 kts | 264° |
| 2026-05-05 09:18 | 48.36672 | 11.81903 | 1485 ft | 1 kts | 264° |
| 2026-05-05 09:18 | 48.36652 | 11.81633 | 1485 ft | 62 kts | 263° |
| 2026-05-05 09:19 | 48.36576 | 11.80651 | 1482 ft | 124 kts | 263° |
| 2026-05-05 09:19 | 48.36455 | 11.79106 | 1488 ft | 171 kts | 263° |
| 2026-05-05 09:19 | 48.36331 | 11.77290 | 2072 ft | 171 kts | 263° |
| 2026-05-05 09:19 | 48.36182 | 11.75483 | 2722 ft | 177 kts | 262° |
| 2026-05-05 09:20 | 48.35987 | 11.73631 | 3274 ft | 183 kts | 261° |
| 2026-05-05 09:20 | 48.35820 | 11.71640 | 3579 ft | 204 kts | 264° |
| 2026-05-05 09:20 | 48.35668 | 11.69388 | 3928 ft | 227 kts | 265° |
| 2026-05-05 09:20 | 48.35873 | 11.67016 | 4573 ft | 236 kts | 298° |
| 2026-05-05 09:21 | 48.37025 | 11.65216 | 5084 ft | 253 kts | 332° |
| 2026-05-05 09:21 | 48.38744 | 11.64323 | 5614 ft | 269 kts | 348° |
| 2026-05-05 09:21 | 48.40618 | 11.63874 | 6392 ft | 276 kts | 353° |
| 2026-05-05 09:21 | 48.42545 | 11.63533 | 6749 ft | 280 kts | 353° |
| 2026-05-05 09:22 | 48.44480 | 11.63171 | 6973 ft | 283 kts | 352° |
| 2026-05-05 09:22 | 48.46434 | 11.62738 | 7839 ft | 284 kts | 351° |
| 2026-05-05 09:22 | 48.48415 | 11.62237 | 8697 ft | 287 kts | 349° |
| 2026-05-05 09:22 | 48.50396 | 11.61692 | 9481 ft | 292 kts | 349° |
| 2026-05-05 09:23 | 48.52407 | 11.61116 | 10248 ft | 296 kts | 348° |
| 2026-05-05 09:23 | 48.54446 | 11.60521 | 11007 ft | 301 kts | 348° |
| 2026-05-05 09:23 | 48.56481 | 11.59914 | 11733 ft | 304 kts | 346° |
| 2026-05-05 09:23 | 48.58522 | 11.58926 | 12230 ft | 318 kts | 339° |
| 2026-05-05 09:24 | 48.60667 | 11.57694 | 12420 ft | 341 kts | 338° |
| 2026-05-05 09:24 | 48.62982 | 11.56343 | 12561 ft | 363 kts | 338° |
| 2026-05-05 09:24 | 48.65408 | 11.54922 | 12726 ft | 383 kts | 338° |
| 2026-05-05 09:24 | 48.67923 | 11.53452 | 13220 ft | 390 kts | 338° |
| 2026-05-05 09:25 | 48.70473 | 11.51973 | 13804 ft | 395 kts | 338° |
| 2026-05-05 09:25 | 48.73050 | 11.50480 | 14425 ft | 398 kts | 338° |
| 2026-05-05 09:25 | 48.75648 | 11.48973 | 15025 ft | 402 kts | 338° |
| 2026-05-05 09:25 | 48.78271 | 11.47454 | 15592 ft | 405 kts | 338° |
| 2026-05-05 09:26 | 48.80911 | 11.45925 | 16144 ft | 408 kts | 338° |
| 2026-05-05 09:26 | 48.83572 | 11.44381 | 16680 ft | 411 kts | 338° |
| 2026-05-05 09:26 | 48.86253 | 11.42818 | 17190 ft | 414 kts | 338° |
| 2026-05-05 09:26 | 48.88953 | 11.41243 | 17697 ft | 417 kts | 338° |
| 2026-05-05 09:27 | 48.91671 | 11.39652 | 18204 ft | 420 kts | 338° |
| 2026-05-05 09:27 | 48.94407 | 11.38046 | 18684 ft | 423 kts | 338° |
| 2026-05-05 09:27 | 48.97162 | 11.36427 | 19156 ft | 426 kts | 338° |
| 2026-05-05 09:27 | 48.99935 | 11.34797 | 19628 ft | 429 kts | 338° |
| 2026-05-05 09:28 | 49.02729 | 11.33160 | 20081 ft | 431 kts | 338° |
| 2026-05-05 09:28 | 49.05500 | 11.31535 | 20516 ft | 434 kts | 338° |
| 2026-05-05 09:28 | 49.08327 | 11.29879 | 20946 ft | 437 kts | 338° |
| 2026-05-05 09:28 | 49.11172 | 11.28212 | 21371 ft | 439 kts | 338° |
| 2026-05-05 09:29 | 49.14030 | 11.26534 | 21790 ft | 442 kts | 338° |
| 2026-05-05 09:29 | 49.16905 | 11.24836 | 22179 ft | 444 kts | 338° |
| 2026-05-05 09:29 | 49.19791 | 11.23124 | 22565 ft | 446 kts | 338° |
| 2026-05-05 09:29 | 49.22692 | 11.21405 | 22930 ft | 449 kts | 338° |
| 2026-05-05 09:30 | 49.25622 | 11.19712 | 23295 ft | 451 kts | 338° |
| 2026-05-05 09:30 | 49.28573 | 11.18049 | 23647 ft | 454 kts | 339° |
| 2026-05-05 09:30 | 49.31542 | 11.16396 | 24010 ft | 455 kts | 339° |
| 2026-05-05 09:30 | 49.34532 | 11.14732 | 24351 ft | 458 kts | 339° |
| 2026-05-05 09:31 | 49.37525 | 11.13057 | 24690 ft | 459 kts | 339° |
| 2026-05-05 09:31 | 49.40535 | 11.11359 | 25001 ft | 461 kts | 338° |
| 2026-05-05 09:31 | 49.43550 | 11.09643 | 25324 ft | 463 kts | 338° |
| 2026-05-05 09:31 | 49.46572 | 11.07912 | 25625 ft | 465 kts | 338° |
| 2026-05-05 09:32 | 49.49610 | 11.06166 | 25925 ft | 467 kts | 338° |
| 2026-05-05 09:32 | 49.52613 | 11.04275 | 26213 ft | 467 kts | 332° |
| 2026-05-05 09:32 | 49.55441 | 11.01804 | 26483 ft | 468 kts | 327° |
| 2026-05-05 09:32 | 49.58219 | 10.99182 | 26756 ft | 469 kts | 327° |
| 2026-05-05 09:33 | 49.61005 | 10.96552 | 27063 ft | 470 kts | 327° |
| 2026-05-05 09:33 | 49.63792 | 10.93925 | 27462 ft | 468 kts | 327° |
| 2026-05-05 09:33 | 49.66565 | 10.91315 | 27849 ft | 467 kts | 327° |
| 2026-05-05 09:33 | 49.69336 | 10.88705 | 28236 ft | 466 kts | 327° |
| 2026-05-05 09:34 | 49.72096 | 10.86099 | 28609 ft | 464 kts | 326° |
| 2026-05-05 09:34 | 49.74846 | 10.83497 | 28981 ft | 463 kts | 327° |
| 2026-05-05 09:34 | 49.77591 | 10.80896 | 29368 ft | 462 kts | 326° |
| 2026-05-05 09:34 | 49.80329 | 10.78296 | 29718 ft | 461 kts | 326° |
| 2026-05-05 09:35 | 49.83060 | 10.75699 | 29849 ft | 462 kts | 326° |
| 2026-05-05 09:35 | 49.91295 | 10.67848 | 29870 ft | 464 kts | 326° |
| 2026-05-05 09:36 | 49.96784 | 10.62587 | 29879 ft | 464 kts | 326° |
| 2026-05-05 09:36 | 50.02278 | 10.57318 | 29879 ft | 464 kts | 326° |
| 2026-05-05 09:37 | 50.07759 | 10.52044 | 29882 ft | 463 kts | 326° |
| 2026-05-05 09:37 | 50.13240 | 10.46761 | 29879 ft | 463 kts | 326° |
| 2026-05-05 09:38 | 50.18697 | 10.41477 | 29882 ft | 463 kts | 326° |
| 2026-05-05 09:38 | 50.24169 | 10.36167 | 29884 ft | 463 kts | 326° |
| 2026-05-05 09:39 | 50.29643 | 10.30872 | 29886 ft | 463 kts | 326° |
| 2026-05-05 09:39 | 50.35115 | 10.25567 | 29887 ft | 463 kts | 325° |
| 2026-05-05 09:40 | 50.39959 | 10.19065 | 29888 ft | 457 kts | 309° |
| 2026-05-05 09:40 | 50.44167 | 10.11581 | 29883 ft | 458 kts | 309° |
| 2026-05-05 09:41 | 50.48369 | 10.04083 | 29888 ft | 457 kts | 309° |
| 2026-05-05 09:41 | 50.52569 | 9.96574 | 29887 ft | 458 kts | 309° |
| 2026-05-05 09:42 | 50.56764 | 9.89058 | 29887 ft | 457 kts | 309° |
| 2026-05-05 09:42 | 50.60950 | 9.81526 | 29887 ft | 457 kts | 309° |
| 2026-05-05 09:43 | 50.65129 | 9.73974 | 29884 ft | 457 kts | 309° |
| 2026-05-05 09:43 | 50.69586 | 9.66828 | 29889 ft | 461 kts | 321° |
| 2026-05-05 09:44 | 50.72327 | 9.64178 | 29889 ft | 464 kts | 332° |
| 2026-05-05 09:44 | 50.75346 | 9.62369 | 29885 ft | 467 kts | 343° |
| 2026-05-05 09:44 | 50.78557 | 9.61474 | 29884 ft | 470 kts | 354° |
| 2026-05-05 09:44 | 50.81832 | 9.61538 | 29886 ft | 473 kts | 4° |
| 2026-05-05 09:45 | 50.88365 | 9.62805 | 29884 ft | 473 kts | 5° |
| 2026-05-05 09:45 | 50.94909 | 9.64094 | 29885 ft | 474 kts | 5° |
| 2026-05-05 09:46 | 51.01455 | 9.65380 | 29891 ft | 474 kts | 5° |
| 2026-05-05 09:46 | 51.08006 | 9.66653 | 29887 ft | 474 kts | 5° |
| 2026-05-05 09:47 | 51.14553 | 9.67939 | 29888 ft | 474 kts | 5° |
| 2026-05-05 09:47 | 51.21097 | 9.69218 | 29885 ft | 474 kts | 4° |
| 2026-05-05 09:48 | 51.27656 | 9.70353 | 29888 ft | 473 kts | 3° |
| 2026-05-05 09:48 | 51.34212 | 9.71352 | 29889 ft | 473 kts | 3° |
| 2026-05-05 09:49 | 51.40764 | 9.72373 | 29889 ft | 473 kts | 3° |
| 2026-05-05 09:49 | 51.47321 | 9.73447 | 29889 ft | 473 kts | 3° |
| 2026-05-05 09:50 | 51.53871 | 9.74625 | 29889 ft | 474 kts | 4° |
| 2026-05-05 09:50 | 51.60418 | 9.75907 | 29887 ft | 474 kts | 4° |
| 2026-05-05 09:51 | 51.66968 | 9.77182 | 29889 ft | 474 kts | 4° |
| 2026-05-05 09:51 | 51.70242 | 9.77805 | 29786 ft | 474 kts | 4° |
| 2026-05-05 09:51 | 51.73522 | 9.78429 | 29535 ft | 474 kts | 4° |
| 2026-05-05 09:52 | 51.76797 | 9.79054 | 29285 ft | 475 kts | 4° |
| 2026-05-05 09:52 | 51.80079 | 9.79682 | 29034 ft | 475 kts | 4° |
| 2026-05-05 09:52 | 51.83365 | 9.80179 | 28781 ft | 473 kts | 359° |
| 2026-05-05 09:52 | 51.86643 | 9.79989 | 28536 ft | 470 kts | 351° |
| 2026-05-05 09:53 | 51.89849 | 9.79075 | 28290 ft | 468 kts | 343° |
| 2026-05-05 09:53 | 51.92948 | 9.77500 | 28037 ft | 466 kts | 338° |
| 2026-05-05 09:53 | 51.96003 | 9.75753 | 27782 ft | 467 kts | 338° |
| 2026-05-05 09:53 | 51.99071 | 9.74005 | 27537 ft | 467 kts | 338° |
| 2026-05-05 09:54 | 52.02141 | 9.72257 | 27287 ft | 468 kts | 338° |
| 2026-05-05 09:54 | 52.05216 | 9.70502 | 27037 ft | 468 kts | 338° |
| 2026-05-05 09:54 | 52.08292 | 9.68737 | 26788 ft | 469 kts | 338° |
| 2026-05-05 09:54 | 52.11367 | 9.66968 | 26544 ft | 469 kts | 338° |
| 2026-05-05 09:55 | 52.14449 | 9.65198 | 26290 ft | 470 kts | 338° |
| 2026-05-05 09:55 | 52.17531 | 9.63426 | 26035 ft | 470 kts | 338° |
| 2026-05-05 09:55 | 52.20620 | 9.61647 | 25790 ft | 471 kts | 338° |
| 2026-05-05 09:55 | 52.23712 | 9.59865 | 25546 ft | 472 kts | 338° |
| 2026-05-05 09:56 | 52.26809 | 9.58078 | 25295 ft | 472 kts | 338° |
| 2026-05-05 09:56 | 52.29901 | 9.56297 | 24576 ft | 466 kts | 339° |
| 2026-05-05 09:56 | 52.32920 | 9.54558 | 23359 ft | 454 kts | 339° |
| 2026-05-05 09:56 | 52.35860 | 9.52858 | 22309 ft | 442 kts | 339° |
| 2026-05-05 09:57 | 52.38729 | 9.51194 | 21517 ft | 435 kts | 339° |
| 2026-05-05 09:57 | 52.41568 | 9.49541 | 20715 ft | 431 kts | 339° |
| 2026-05-05 09:57 | 52.44378 | 9.47899 | 19936 ft | 426 kts | 339° |
| 2026-05-05 09:57 | 52.46221 | 9.46822 | 19421 ft | 424 kts | 339° |
| 2026-05-05 09:58 | 52.48983 | 9.45207 | 18662 ft | 419 kts | 339° |
| 2026-05-05 09:58 | 52.51722 | 9.43603 | 17909 ft | 416 kts | 339° |
| 2026-05-05 09:58 | 52.54427 | 9.42018 | 17192 ft | 411 kts | 339° |
| 2026-05-05 09:58 | 52.57107 | 9.40443 | 16486 ft | 407 kts | 339° |
| 2026-05-05 09:59 | 52.59760 | 9.38881 | 15806 ft | 404 kts | 339° |
| 2026-05-05 09:59 | 52.62401 | 9.37325 | 15132 ft | 403 kts | 339° |
| 2026-05-05 09:59 | 52.65026 | 9.35773 | 14485 ft | 400 kts | 339° |
| 2026-05-05 09:59 | 52.67636 | 9.34216 | 13865 ft | 397 kts | 339° |
| 2026-05-05 10:00 | 52.70226 | 9.32662 | 13242 ft | 394 kts | 339° |
| 2026-05-05 10:00 | 52.72795 | 9.31114 | 12633 ft | 391 kts | 339° |
| 2026-05-05 10:00 | 52.75338 | 9.29577 | 12022 ft | 387 kts | 339° |
| 2026-05-05 10:00 | 52.77858 | 9.28055 | 11424 ft | 384 kts | 339° |
| 2026-05-05 10:01 | 52.80332 | 9.26566 | 11191 ft | 370 kts | 339° |
| 2026-05-05 10:01 | 52.82732 | 9.25123 | 11065 ft | 354 kts | 339° |
| 2026-05-05 10:01 | 52.85000 | 9.23757 | 10927 ft | 340 kts | 339° |
| 2026-05-05 10:01 | 52.87177 | 9.22444 | 10799 ft | 327 kts | 339° |
| 2026-05-05 10:02 | 52.89249 | 9.21194 | 10703 ft | 314 kts | 339° |
| 2026-05-05 10:02 | 52.91357 | 9.20498 | 10716 ft | 300 kts | 359° |
| 2026-05-05 10:02 | 52.93356 | 9.21046 | 10717 ft | 286 kts | 20° |
| 2026-05-05 10:02 | 52.95049 | 9.22613 | 10716 ft | 273 kts | 39° |
| 2026-05-05 10:03 | 52.96285 | 9.24895 | 10718 ft | 262 kts | 58° |
| 2026-05-05 10:03 | 52.97011 | 9.27639 | 10716 ft | 260 kts | 77° |
| 2026-05-05 10:03 | 52.97196 | 9.30603 | 10718 ft | 259 kts | 95° |
| 2026-05-05 10:03 | 52.96825 | 9.33509 | 10718 ft | 258 kts | 113° |
| 2026-05-05 10:04 | 52.95943 | 9.36070 | 10720 ft | 256 kts | 131° |
| 2026-05-05 10:04 | 52.94645 | 9.38059 | 10712 ft | 254 kts | 148° |
| 2026-05-05 10:04 | 52.93082 | 9.39399 | 10711 ft | 253 kts | 159° |
| 2026-05-05 10:04 | 52.91444 | 9.40463 | 10710 ft | 253 kts | 161° |
| 2026-05-05 10:05 | 52.89784 | 9.41433 | 10710 ft | 253 kts | 162° |
| 2026-05-05 10:05 | 52.88109 | 9.42301 | 10707 ft | 252 kts | 173° |
| 2026-05-05 10:05 | 52.86385 | 9.42292 | 10494 ft | 247 kts | 192° |
| 2026-05-05 10:05 | 52.84768 | 9.41402 | 10183 ft | 245 kts | 208° |
| 2026-05-05 10:06 | 52.83367 | 9.39829 | 9936 ft | 244 kts | 224° |
| 2026-05-05 10:06 | 52.82285 | 9.37694 | 9780 ft | 243 kts | 239° |
| 2026-05-05 10:06 | 52.81605 | 9.35142 | 9654 ft | 243 kts | 255° |
| 2026-05-05 10:06 | 52.81398 | 9.32374 | 9529 ft | 244 kts | 272° |
| 2026-05-05 10:07 | 52.81685 | 9.29625 | 9404 ft | 244 kts | 288° |
| 2026-05-05 10:07 | 52.82443 | 9.27116 | 9277 ft | 245 kts | 305° |
| 2026-05-05 10:07 | 52.83608 | 9.25063 | 9150 ft | 246 kts | 321° |
| 2026-05-05 10:07 | 52.85092 | 9.23671 | 9032 ft | 247 kts | 339° |
| 2026-05-05 10:08 | 52.86717 | 9.22731 | 8901 ft | 247 kts | 339° |
| 2026-05-05 10:08 | 52.88376 | 9.21692 | 8783 ft | 270 kts | 332° |
| 2026-05-05 10:08 | 52.89863 | 9.19711 | 8656 ft | 280 kts | 306° |